Time;durP1;ratioP1;P1;durP2;ratioP2;P2;SDS_P1;SDS_P2;PMS_P1;PMS_P2;Temp;Humidity;BMP_temperature;BMP_pressure;BME280_temperature;BME280_humidity;BME280_pressure;Samples;Min_cycle;Max_cycle;Signal;HPM_P1;HPM_P2
2023/11/07 00:02:53;;;;;;;;;;;;;;;7.11;100.00;95495.97;10563927;27;2560;-71
2023/11/07 00:07:56;;;;;;;;;;;;;;;7.08;100.00;95496.50;10565304;27;2568;-71
2023/11/07 00:12:58;;;;;;;;;;;;;;;7.17;100.00;95503.78;10573337;27;2620;-71
2023/11/07 00:18:01;;;;;;;;;;;;;;;7.13;100.00;95510.72;10567218;27;2609;-72
2023/11/07 00:23:03;;;;;;;;;;;;;;;7.10;100.00;95508.53;10548766;28;2610;-70
2023/11/07 00:28:06;;;;;;;;;;;;;;;7.09;100.00;95503.47;10563518;27;2628;-72
2023/11/07 00:33:08;;;;;;;;;;;;;;;7.10;100.00;95505.88;10569016;28;2581;-71
2023/11/07 00:38:11;;;;;;;;;;;;;;;7.13;100.00;95496.56;10559689;28;2645;-72
2023/11/07 00:43:14;;;;;;;;;;;;;;;7.13;100.00;95509.91;10568945;28;2577;-72
2023/11/07 00:48:16;;;;;;;;;;;;;;;7.14;100.00;95506.19;10563153;28;2644;-73
2023/11/07 00:53:19;;;;;;;;;;;;;;;7.13;100.00;95499.22;10565567;28;2592;-73
2023/11/07 00:58:21;;;;;;;;;;;;;;;7.12;100.00;95511.75;10562238;28;2667;-72
2023/11/07 01:03:23;;;;;;;;;;;;;;;7.02;100.00;95504.50;10565954;28;2575;-70
2023/11/07 01:08:27;;;;;;;;;;;;;;;7.02;100.00;95512.50;10567468;27;2687;-73
2023/11/07 01:13:29;;;;;;;;;;;;;;;6.98;100.00;95502.59;10573231;27;2631;-72
2023/11/07 01:18:32;;;;;;;;;;;;;;;6.91;100.00;95513.50;10570965;27;2637;-71
2023/11/07 01:23:35;;;;;;;;;;;;;;;6.82;100.00;95512.38;10566238;27;2584;-70
2023/11/07 01:28:37;;;;;;;;;;;;;;;6.77;100.00;95507.78;10563810;27;2557;-71
2023/11/07 01:33:40;;;;;;;;;;;;;;;6.80;100.00;95497.66;10571691;27;2672;-72
2023/11/07 01:38:42;;;;;;;;;;;;;;;6.79;100.00;95494.16;10566970;27;2580;-70
2023/11/07 01:43:45;;;;;;;;;;;;;;;6.75;100.00;95487.75;10569329;27;4922;-72
2023/11/07 01:48:48;;;;;;;;;;;;;;;6.61;100.00;95486.56;10568098;27;2735;-71
2023/11/07 01:53:52;;;;;;;;;;;;;;;6.56;100.00;95484.66;10572357;27;2592;-70
2023/11/07 01:58:55;;;;;;;;;;;;;;;6.48;100.00;95479.78;10568838;27;2663;-72
2023/11/07 02:03:57;;;;;;;;;;;;;;;6.42;100.00;95486.94;10573180;27;2734;-71
2023/11/07 02:09:00;;;;;;;;;;;;;;;6.37;100.00;95481.56;10566544;27;2722;-69
2023/11/07 02:14:02;;;;;;;;;;;;;;;6.42;100.00;95481.59;10562666;27;2602;-71
2023/11/07 02:19:05;;;;;;;;;;;;;;;6.52;100.00;95472.06;10566919;27;2638;-70
2023/11/07 02:24:10;;;;;;;;;;;;;;;6.55;100.00;95469.69;10568277;27;2620;-71
2023/11/07 02:29:12;;;;;;;;;;;;;;;6.64;100.00;95459.34;10564102;27;2909;-70
2023/11/07 02:34:15;;;;;;;;;;;;;;;6.62;100.00;95466.81;10564806;27;2572;-72
2023/11/07 02:39:17;;;;;;;;;;;;;;;6.55;100.00;95466.22;10565092;27;2635;-71
2023/11/07 02:44:20;;;;;;;;;;;;;;;6.59;100.00;95467.31;10564602;27;4981;-72
2023/11/07 02:49:22;;;;;;;;;;;;;;;6.64;100.00;95481.50;10563702;27;2691;-70
2023/11/07 02:54:25;;;;;;;;;;;;;;;6.74;100.00;95478.94;10567322;27;2577;-72
2023/11/07 02:59:27;;;;;;;;;;;;;;;6.78;100.00;95463.97;10568895;27;2676;-70
2023/11/07 03:04:30;;;;;;;;;;;;;;;6.83;100.00;95462.41;10564493;27;2572;-71
2023/11/07 03:09:32;;;;;;;;;;;;;;;6.84;100.00;95470.16;10545940;27;2784;-73
2023/11/07 03:14:37;;;;;;;;;;;;;;;6.73;100.00;95485.31;10564225;27;2660;-72
2023/11/07 03:19:40;;;;;;;;;;;;;;;6.63;100.00;95479.09;10564992;27;2668;-71
2023/11/07 03:24:42;;;;;;;;;;;;;;;6.54;100.00;95476.09;10559922;27;2561;-71
2023/11/07 03:29:45;;;;;;;;;;;;;;;6.53;100.00;95484.34;10561817;27;2618;-71
2023/11/07 03:34:47;;;;;;;;;;;;;;;6.56;100.00;95483.88;10563820;27;2631;-71
2023/11/07 03:39:50;;;;;;;;;;;;;;;6.61;100.00;95476.66;10562822;27;2596;-71
2023/11/07 03:44:52;;;;;;;;;;;;;;;6.68;100.00;95476.44;10564439;27;4715;-71
2023/11/07 03:49:55;;;;;;;;;;;;;;;6.72;100.00;95483.69;10564864;27;2563;-71
2023/11/07 03:54:58;;;;;;;;;;;;;;;6.72;100.00;95485.56;10560624;27;2651;-70
2023/11/07 04:00:00;;;;;;;;;;;;;;;6.75;100.00;95483.22;10561496;27;2672;-70
2023/11/07 04:05:04;;;;;;;;;;;;;;;6.85;100.00;95485.13;10556933;27;2600;-71
2023/11/07 04:10:06;;;;;;;;;;;;;;;6.89;100.00;95483.56;10561471;27;2586;-71
2023/11/07 04:15:09;;;;;;;;;;;;;;;6.94;100.00;95478.25;10561242;27;2649;-71
2023/11/07 04:20:13;;;;;;;;;;;;;;;6.96;100.00;95481.47;10557263;27;3038;-69
2023/11/07 04:25:19;;;;;;;;;;;;;;;6.98;100.00;95487.34;10558735;27;2596;-71
2023/11/07 04:30:22;;;;;;;;;;;;;;;6.93;100.00;95483.84;10557753;28;2576;-71
2023/11/07 04:35:25;;;;;;;;;;;;;;;6.95;100.00;95485.22;10566985;28;2926;-72
2023/11/07 04:40:27;;;;;;;;;;;;;;;6.93;100.00;95489.19;10557492;28;2620;-71
2023/11/07 04:45:31;;;;;;;;;;;;;;;6.91;100.00;95486.78;10574822;27;4767;-71
2023/11/07 04:50:34;;;;;;;;;;;;;;;6.93;100.00;95484.66;10567326;27;2623;-71
2023/11/07 04:55:37;;;;;;;;;;;;;;;6.98;100.00;95482.00;10570817;27;2658;-71
2023/11/07 05:00:39;;;;;;;;;;;;;;;7.08;100.00;95483.16;10566973;27;2608;-75
2023/11/07 05:05:43;;;;;;;;;;;;;;;7.05;100.00;95482.59;10574575;27;2636;-72
2023/11/07 05:10:46;;;;;;;;;;;;;;;7.08;100.00;95486.63;10567650;27;2608;-73
2023/11/07 05:15:48;;;;;;;;;;;;;;;7.07;100.00;95494.91;10573479;27;2675;-71
2023/11/07 05:20:51;;;;;;;;;;;;;;;7.11;100.00;95485.28;10575412;27;2624;-71
2023/11/07 05:25:54;;;;;;;;;;;;;;;7.12;100.00;95493.03;10563896;27;2593;-71
2023/11/07 05:30:56;;;;;;;;;;;;;;;7.17;100.00;95493.09;10567701;27;2727;-71
2023/11/07 05:35:59;;;;;;;;;;;;;;;7.20;100.00;95497.94;10565471;27;2604;-72
2023/11/07 05:41:01;;;;;;;;;;;;;;;7.12;100.00;95485.03;10568895;27;2613;-72
2023/11/07 05:46:04;;;;;;;;;;;;;;;7.00;100.00;95474.56;10570274;27;4771;-72
2023/11/07 05:51:07;;;;;;;;;;;;;;;6.83;100.00;95489.94;10563999;27;2655;-71
2023/11/07 05:56:10;;;;;;;;;;;;;;;6.60;100.00;95484.94;10565944;27;2727;-72
2023/11/07 06:01:12;;;;;;;;;;;;;;;6.43;100.00;95496.56;10560719;27;2614;-74
2023/11/07 06:06:15;;;;;;;;;;;;;;;6.37;100.00;95500.25;10561989;27;2726;-74
2023/11/07 06:11:17;;;;;;;;;;;;;;;6.31;100.00;95513.81;10544180;27;2599;-73
2023/11/07 06:16:20;;;;;;;;;;;;;;;6.33;100.00;95520.50;10563052;27;2528;-72
2023/11/07 06:21:22;;;;;;;;;;;;;;;6.47;100.00;95513.69;10564224;27;2619;-71
2023/11/07 06:26:27;;;;;;;;;;;;;;;6.61;100.00;95518.59;10568944;27;2675;-71
2023/11/07 06:31:30;;;;;;;;;;;;;;;6.73;100.00;95529.91;10569037;27;2597;-72
2023/11/07 06:36:33;;;;;;;;;;;;;;;6.85;100.00;95525.22;10570134;27;2727;-74
2023/11/07 06:41:35;;;;;;;;;;;;;;;6.98;100.00;95516.75;10571952;27;2623;-71
2023/11/07 06:46:37;;;;;;;;;;;;;;;7.13;100.00;95520.59;10572230;27;4673;-72
2023/11/07 06:51:40;;;;;;;;;;;;;;;7.24;100.00;95516.91;10567831;27;2541;-72
2023/11/07 06:56:42;;;;;;;;;;;;;;;7.40;100.00;95515.94;10565248;27;2706;-71
2023/11/07 07:01:47;;;;;;;;;;;;;;;7.49;100.00;95513.56;10572931;27;2661;-71
2023/11/07 07:06:49;;;;;;;;;;;;;;;7.69;100.00;95512.84;10566357;27;2713;-71
2023/11/07 07:11:52;;;;;;;;;;;;;;;7.86;100.00;95508.13;10563832;27;2570;-71
2023/11/07 07:16:54;;;;;;;;;;;;;;;8.03;100.00;95519.41;10561235;27;2747;-72
2023/11/07 07:21:57;;;;;;;;;;;;;;;7.91;100.00;95521.53;10571423;27;2732;-72
2023/11/07 07:27:00;;;;;;;;;;;;;;;7.99;100.00;95526.34;10573840;27;3119;-73
2023/11/07 07:32:03;;;;;;;;;;;;;;;8.01;100.00;95529.56;10555377;27;2563;-72
2023/11/07 07:37:09;;;;;;;;;;;;;;;8.20;100.00;95531.75;10563498;27;2617;-72
2023/11/07 07:42:13;;;;;;;;;;;;;;;8.32;100.00;95533.13;10562380;27;4929;-72
2023/11/07 07:47:19;;;;;;;;;;;;;;;8.48;100.00;95525.97;10563730;27;2639;-72
2023/11/07 07:52:22;;;;;;;;;;;;;;;8.65;100.00;95526.53;10566733;27;2673;-71
2023/11/07 07:57:26;;;;;;;;;;;;;;;8.72;100.00;95528.94;10564849;27;2640;-71
2023/11/07 08:02:29;;;;;;;;;;;;;;;8.92;100.00;95517.41;10563775;27;2626;-72
2023/11/07 08:07:33;;;;;;;;;;;;;;;9.10;100.00;95516.88;10566606;27;2680;-71
2023/11/07 08:12:35;;;;;;;;;;;;;;;9.25;100.00;95520.59;10565007;27;3134;-71
2023/11/07 08:17:39;;;;;;;;;;;;;;;9.17;100.00;95519.28;10556918;27;2595;-71
2023/11/07 08:22:42;;;;;;;;;;;;;;;9.27;100.00;95511.19;10545170;27;2655;-72
2023/11/07 08:27:45;;;;;;;;;;;;;;;9.34;100.00;95514.38;10569747;27;2540;-70
2023/11/07 08:32:49;;;;;;;;;;;;;;;9.50;100.00;95514.38;10563146;28;2739;-72
2023/11/07 08:37:55;;;;;;;;;;;;;;;9.38;100.00;95517.34;10564287;28;2857;-70
2023/11/07 08:42:58;;;;;;;;;;;;;;;9.32;100.00;95518.44;10565202;28;4941;-71
2023/11/07 08:48:00;;;;;;;;;;;;;;;9.54;100.00;95531.50;10558614;28;2667;-72
2023/11/07 08:53:05;;;;;;;;;;;;;;;9.53;100.00;95536.06;10557573;28;2718;-72
2023/11/07 08:58:08;;;;;;;;;;;;;;;9.50;100.00;95536.63;10558306;28;2592;-72
2023/11/07 09:03:11;;;;;;;;;;;;;;;9.71;100.00;95538.19;10568356;28;2692;-72
2023/11/07 09:08:14;;;;;;;;;;;;;;;9.88;100.00;95534.38;10565013;28;2611;-72
2023/11/07 09:13:16;;;;;;;;;;;;;;;9.92;100.00;95538.09;10554546;28;2683;-72
2023/11/07 09:18:18;;;;;;;;;;;;;;;9.98;100.00;95539.69;10557782;28;2776;-74
2023/11/07 09:23:21;;;;;;;;;;;;;;;9.79;100.00;95544.06;10564520;28;2650;-72
2023/11/07 09:28:26;;;;;;;;;;;;;;;9.68;100.00;95549.47;10567165;27;2670;-70
2023/11/07 09:33:28;;;;;;;;;;;;;;;9.82;100.00;95543.53;10568363;27;2632;-72
2023/11/07 09:38:30;;;;;;;;;;;;;;;9.84;100.00;95536.00;10566767;27;2773;-71
2023/11/07 09:43:48;;;;;;;;;;;;;;;10.07;100.00;95534.56;10572122;27;4776;-71
2023/11/07 09:48:51;;;;;;;;;;;;;;;10.15;100.00;95523.22;10565314;27;2640;-72
2023/11/07 09:53:53;;;;;;;;;;;;;;;10.29;100.00;95533.13;10572511;27;2791;-72
2023/11/07 09:58:56;;;;;;;;;;;;;;;10.27;100.00;95531.78;10569440;27;2740;-72
2023/11/07 10:03:58;;;;;;;;;;;;;;;10.60;100.00;95534.81;10566477;27;2712;-72
2023/11/07 10:09:01;;;;;;;;;;;;;;;10.66;100.00;95525.63;10567866;27;2565;-72
2023/11/07 10:14:05;;;;;;;;;;;;;;;10.48;100.00;95529.78;10570213;27;2613;-72
2023/11/07 10:19:07;;;;;;;;;;;;;;;10.74;100.00;95523.16;10576095;27;2610;-72
2023/11/07 10:24:10;;;;;;;;;;;;;;;10.68;100.00;95529.63;10577728;27;2561;-73
2023/11/07 10:29:15;;;;;;;;;;;;;;;10.78;100.00;95528.78;10573675;27;2605;-72
2023/11/07 10:34:21;;;;;;;;;;;;;;;11.04;100.00;95521.31;10564890;27;2620;-71
2023/11/07 10:39:25;;;;;;;;;;;;;;;11.01;100.00;95522.69;10565881;27;2623;-75
2023/11/07 10:44:29;;;;;;;;;;;;;;;10.69;100.00;95514.34;10566995;27;2691;-75
2023/11/07 10:49:33;;;;;;;;;;;;;;;10.40;100.00;95506.19;10573183;27;2601;-74
2023/11/07 10:54:36;;;;;;;;;;;;;;;9.77;100.00;95504.06;10568057;27;2699;-72
2023/11/07 10:59:41;;;;;;;;;;;;;;;9.27;100.00;95502.34;10574160;27;2614;-73
2023/11/07 11:04:43;;;;;;;;;;;;;;;9.00;100.00;95503.47;10566899;27;2635;-71
2023/11/07 11:09:46;;;;;;;;;;;;;;;9.00;100.00;95513.38;10565835;27;2615;-72
2023/11/07 11:14:49;;;;;;;;;;;;;;;9.18;100.00;95508.25;10564046;27;2636;-71
2023/11/07 11:19:52;;;;;;;;;;;;;;;9.44;100.00;95510.91;10567047;27;2636;-72
2023/11/07 11:24:55;;;;;;;;;;;;;;;9.61;100.00;95506.03;10566349;27;2689;-72
2023/11/07 11:29:57;;;;;;;;;;;;;;;9.94;100.00;95496.47;10566921;27;2581;-71
2023/11/07 11:35:00;;;;;;;;;;;;;;;10.18;100.00;95491.25;10564561;27;2722;-70
2023/11/07 11:40:03;;;;;;;;;;;;;;;10.46;100.00;95494.34;10562888;27;2645;-72
2023/11/07 11:45:07;;;;;;;;;;;;;;;10.57;100.00;95495.88;10567462;27;2638;-71
2023/11/07 11:50:10;;;;;;;;;;;;;;;10.68;100.00;95496.59;10569584;27;2569;-70
2023/11/07 11:55:15;;;;;;;;;;;;;;;11.08;100.00;95495.47;10562048;27;2724;-73
2023/11/07 12:00:17;;;;;;;;;;;;;;;10.97;100.00;95488.56;10571742;27;2563;-70
2023/11/07 12:05:22;;;;;;;;;;;;;;;11.04;100.00;95489.03;10567215;27;2690;-72
2023/11/07 12:10:27;;;;;;;;;;;;;;;11.07;100.00;95477.72;10562930;27;2683;-72
2023/11/07 12:15:32;;;;;;;;;;;;;;;11.04;100.00;95470.19;10568525;27;2587;-71
2023/11/07 12:20:35;;;;;;;;;;;;;;;11.00;100.00;95479.91;10565052;27;2573;-72
2023/11/07 12:25:38;;;;;;;;;;;;;;;11.20;100.00;95463.59;10559532;27;2606;-73
2023/11/07 12:30:40;;;;;;;;;;;;;;;11.47;100.00;95451.47;10567698;27;2620;-72
2023/11/07 12:35:44;;;;;;;;;;;;;;;11.41;100.00;95463.38;10563304;28;2548;-72
2023/11/07 12:40:47;;;;;;;;;;;;;;;11.70;100.00;95458.72;10564330;28;2616;-72
2023/11/07 12:45:50;;;;;;;;;;;;;;;11.68;100.00;95462.78;10564151;28;4816;-73
2023/11/07 12:50:53;;;;;;;;;;;;;;;11.35;100.00;95463.44;10547763;28;2729;-72
2023/11/07 12:55:55;;;;;;;;;;;;;;;11.40;100.00;95459.09;10564275;28;2623;-72
2023/11/07 13:00:58;;;;;;;;;;;;;;;11.36;100.00;95453.47;10568676;28;2678;-72
2023/11/07 13:06:02;;;;;;;;;;;;;;;11.29;100.00;95447.63;10573146;27;2622;-72
2023/11/07 13:11:04;;;;;;;;;;;;;;;11.10;100.00;95439.47;10570014;27;2608;-72
2023/11/07 13:16:07;;;;;;;;;;;;;;;10.75;100.00;95437.91;10573212;27;2599;-72
2023/11/07 13:21:10;;;;;;;;;;;;;;;10.78;100.00;95440.84;10576268;27;2660;-73
2023/11/07 13:26:14;;;;;;;;;;;;;;;10.80;100.00;95433.31;10565323;27;2581;-73
2023/11/07 13:31:16;;;;;;;;;;;;;;;10.87;100.00;95442.94;10572078;27;2556;-73
2023/11/07 13:36:19;;;;;;;;;;;;;;;11.01;100.00;95430.44;10565189;27;2650;-71
2023/11/07 13:41:22;;;;;;;;;;;;;;;11.40;100.00;95437.56;10565312;27;2569;-72
2023/11/07 13:46:24;;;;;;;;;;;;;;;11.65;100.00;95429.19;10571175;27;3082;-73
2023/11/07 13:51:27;;;;;;;;;;;;;;;11.88;100.00;95427.56;10565080;27;2616;-71
2023/11/07 13:56:29;;;;;;;;;;;;;;;11.55;100.00;95427.41;10571627;27;2611;-72
2023/11/07 14:01:35;;;;;;;;;;;;;;;11.02;100.00;95426.66;10569214;27;2670;-70
2023/11/07 14:06:44;;;;;;;;;;;;;;;10.81;100.00;95426.03;10568903;27;2691;-72
2023/11/07 14:11:47;;;;;;;;;;;;;;;10.58;100.00;95432.97;10567542;27;2570;-70
2023/11/07 14:16:50;;;;;;;;;;;;;;;10.52;100.00;95434.09;10566145;27;2685;-69
2023/11/07 14:21:52;;;;;;;;;;;;;;;10.39;100.00;95434.75;10573770;27;2912;-70
2023/11/07 14:26:55;;;;;;;;;;;;;;;10.37;100.00;95439.56;10570200;27;2565;-72
2023/11/07 14:31:58;;;;;;;;;;;;;;;10.31;100.00;95443.38;10556006;27;2654;-73
2023/11/07 14:37:00;;;;;;;;;;;;;;;10.16;100.00;95463.84;10571053;27;2636;-74
2023/11/07 14:42:06;;;;;;;;;;;;;;;9.56;100.00;95459.63;10554523;27;2593;-72
2023/11/07 14:47:09;;;;;;;;;;;;;;;9.04;100.00;95455.47;10565312;27;2540;-74
2023/11/07 14:52:12;;;;;;;;;;;;;;;8.63;100.00;95464.34;10570397;27;2670;-74
2023/11/07 14:57:14;;;;;;;;;;;;;;;8.48;100.00;95464.34;10571025;27;2604;-72
2023/11/07 15:02:17;;;;;;;;;;;;;;;8.25;100.00;95462.16;10539924;27;2650;-72
2023/11/07 15:07:29;;;;;;;;;;;;;;;8.08;100.00;95462.41;10566054;27;2667;-70
2023/11/07 15:12:31;;;;;;;;;;;;;;;8.00;100.00;95469.06;10564828;27;2611;-72
2023/11/07 15:17:34;;;;;;;;;;;;;;;7.86;100.00;95468.78;10562798;27;2680;-73
2023/11/07 15:22:37;;;;;;;;;;;;;;;7.77;100.00;95480.28;10559540;27;2624;-71
2023/11/07 15:27:40;;;;;;;;;;;;;;;7.66;100.00;95481.28;10564431;27;2659;-71
2023/11/07 15:32:44;;;;;;;;;;;;;;;7.58;100.00;95485.28;10572911;27;2600;-71
2023/11/07 15:37:47;;;;;;;;;;;;;;;7.56;100.00;95493.53;10567146;27;2621;-71
2023/11/07 15:42:50;;;;;;;;;;;;;;;7.62;100.00;95491.69;10560801;27;4845;-73
2023/11/07 15:47:55;;;;;;;;;;;;;;;7.72;100.00;95494.44;10562201;27;2607;-72
2023/11/07 15:52:58;;;;;;;;;;;;;;;7.96;100.00;95492.09;10546160;27;2618;-71
2023/11/07 15:58:10;;;;;;;;;;;;;;;8.00;100.00;95497.72;10566251;27;2623;-70
2023/11/07 16:03:13;;;;;;;;;;;;;;;7.95;100.00;95498.53;10568192;27;2605;-71
2023/11/07 16:08:18;;;;;;;;;;;;;;;7.67;100.00;95501.63;10565770;27;2573;-76
2023/11/07 16:13:21;;;;;;;;;;;;;;;7.56;100.00;95498.91;10557205;27;2607;-74
2023/11/07 16:18:26;;;;;;;;;;;;;;;7.44;100.00;95489.47;10563423;27;2569;-73
2023/11/07 16:23:29;;;;;;;;;;;;;;;7.34;100.00;95502.81;10563441;27;2839;-75
2023/11/07 16:28:31;;;;;;;;;;;;;;;7.21;100.00;95509.44;10570449;27;2592;-73
2023/11/07 16:33:34;;;;;;;;;;;;;;;7.27;100.00;95513.75;10562779;27;2676;-73
2023/11/07 16:38:37;;;;;;;;;;;;;;;7.26;100.00;95518.28;10575869;27;2631;-73
2023/11/07 16:43:39;;;;;;;;;;;;;;;7.21;100.00;95528.13;10562267;27;4922;-74
2023/11/07 16:48:41;;;;;;;;;;;;;;;7.33;100.00;95536.78;10578455;27;2589;-77
2023/11/07 16:53:44;;;;;;;;;;;;;;;7.46;100.00;95540.84;10574568;27;2701;-73
2023/11/07 16:58:47;;;;;;;;;;;;;;;7.52;100.00;95545.97;10574515;27;2601;-74
2023/11/07 17:03:51;;;;;;;;;;;;;;;7.58;100.00;95549.47;10578230;27;2978;-74
2023/11/07 17:08:54;;;;;;;;;;;;;;;7.57;100.00;95556.69;10576879;27;2625;-75
2023/11/07 17:13:57;;;;;;;;;;;;;;;7.59;100.00;95562.59;10575443;27;2667;-73
2023/11/07 17:18:59;;;;;;;;;;;;;;;7.54;100.00;95559.88;10575225;27;2562;-72
2023/11/07 17:24:03;;;;;;;;;;;;;;;7.44;100.00;95543.75;10575778;27;2755;-74
2023/11/07 17:29:06;;;;;;;;;;;;;;;7.34;100.00;95554.41;10575947;27;2632;-73
2023/11/07 17:34:13;;;;;;;;;;;;;;;7.23;100.00;95560.75;10580301;27;2596;-73
2023/11/07 17:39:16;;;;;;;;;;;;;;;7.29;100.00;95567.75;10577162;27;2596;-73
2023/11/07 17:44:20;;;;;;;;;;;;;;;7.28;100.00;95566.16;10572212;27;4843;-74
2023/11/07 17:49:23;;;;;;;;;;;;;;;7.27;100.00;95585.94;10578186;27;2556;-71
2023/11/07 17:54:27;;;;;;;;;;;;;;;7.24;100.00;95589.91;10565915;27;2525;-72
2023/11/07 17:59:30;;;;;;;;;;;;;;;7.17;100.00;95588.50;10572928;27;2628;-71
2023/11/07 18:04:32;;;;;;;;;;;;;;;7.22;100.00;95594.72;10568873;27;2765;-73
2023/11/07 18:09:35;;;;;;;;;;;;;;;7.13;100.00;95601.59;10566894;27;2737;-71
2023/11/07 18:14:37;;;;;;;;;;;;;;;7.20;100.00;95606.72;10568480;27;2553;-71
2023/11/07 18:19:40;;;;;;;;;;;;;;;7.17;100.00;95612.56;10550694;27;2618;-70
2023/11/07 18:24:43;;;;;;;;;;;;;;;7.12;100.00;95615.19;10570703;27;2623;-72
2023/11/07 18:29:46;;;;;;;;;;;;;;;7.13;100.00;95616.84;10567408;27;2611;-71
2023/11/07 18:34:48;;;;;;;;;;;;;;;7.09;100.00;95637.91;10568997;28;2083;-74
2023/11/07 18:39:51;;;;;;;;;;;;;;;7.07;100.00;95644.59;10567755;28;1535;-72
2023/11/07 18:44:53;;;;;;;;;;;;;;;7.07;100.00;95644.59;10566469;28;1486;-73
2023/11/07 18:49:59;;;;;;;;;;;;;;;6.98;100.00;95642.34;10567177;28;2063;-73
2023/11/07 18:55:05;;;;;;;;;;;;;;;6.98;100.00;95645.03;10569501;28;1494;-71
2023/11/07 19:00:09;;;;;;;;;;;;;;;6.88;100.00;95647.63;10562826;27;2637;-73
2023/11/07 19:05:12;;;;;;;;;;;;;;;6.82;100.00;95658.50;10567915;27;1755;-72
2023/11/07 19:10:19;;;;;;;;;;;;;;;6.65;100.00;95661.28;10570246;27;1974;-72
2023/11/07 19:15:22;;;;;;;;;;;;;;;6.68;100.00;95674.13;10565669;28;1763;-72
2023/11/07 19:20:24;;;;;;;;;;;;;;;6.69;100.00;95673.09;10567261;27;1482;-72
2023/11/07 19:25:28;;;;;;;;;;;;;;;6.73;100.00;95676.84;10562893;28;1350;-73
2023/11/07 19:30:30;;;;;;;;;;;;;;;6.76;100.00;95689.72;10570431;28;1967;-72
2023/11/07 19:35:33;;;;;;;;;;;;;;;6.80;100.00;95676.63;10557520;28;1452;-75
2023/11/07 19:40:35;;;;;;;;;;;;;;;6.79;100.00;95689.19;10563374;27;1478;-75
2023/11/07 19:45:38;;;;;;;;;;;;;;;6.79;100.00;95691.88;10567954;28;4827;-72
2023/11/07 19:50:40;;;;;;;;;;;;;;;6.82;100.00;95704.75;10568742;27;2388;-73
2023/11/07 19:55:43;;;;;;;;;;;;;;;6.81;100.00;95705.81;10565345;27;1582;-71
2023/11/07 20:00:45;;;;;;;;;;;;;;;6.84;100.00;95707.97;10566142;28;1749;-70
2023/11/07 20:05:49;;;;;;;;;;;;;;;6.80;100.00;95714.03;10572258;27;1678;-70
2023/11/07 20:10:51;;;;;;;;;;;;;;;6.68;100.00;95715.00;10569082;27;1957;-75
2023/11/07 20:15:54;;;;;;;;;;;;;;;6.71;100.00;95729.72;10559706;27;1555;-73
2023/11/07 20:20:58;;;;;;;;;;;;;;;6.65;100.00;95717.38;10565729;28;1608;-74
2023/11/07 20:26:01;;;;;;;;;;;;;;;6.62;100.00;95725.88;10565995;28;1478;-77
2023/11/07 20:31:03;;;;;;;;;;;;;;;6.55;100.00;95718.03;10575358;27;1914;-72
2023/11/07 20:36:06;;;;;;;;;;;;;;;6.60;100.00;95725.31;10567685;28;1456;-72
2023/11/07 20:41:09;;;;;;;;;;;;;;;6.63;100.00;95727.50;10567343;28;1423;-73
2023/11/07 20:46:12;;;;;;;;;;;;;;;6.73;100.00;95722.25;10559330;28;4818;-74
2023/11/07 20:51:28;;;;;;;;;;;;;;;6.59;100.00;95727.19;10565874;28;1987;-73
2023/11/07 20:56:32;;;;;;;;;;;;;;;6.55;100.00;95728.72;10563913;28;1439;-72
2023/11/07 21:01:34;;;;;;;;;;;;;;;6.45;100.00;95728.63;10563684;28;1774;-77
2023/11/07 21:06:37;;;;;;;;;;;;;;;6.36;100.00;95732.75;10567862;28;1843;-74
2023/11/07 21:11:39;;;;;;;;;;;;;;;6.38;100.00;95728.00;10562788;28;2255;-73
2023/11/07 21:16:42;;;;;;;;;;;;;;;6.46;100.00;95724.88;10568365;28;1759;-71
2023/11/07 21:21:47;;;;;;;;;;;;;;;6.47;100.00;95727.31;10567957;28;1662;-70
2023/11/07 21:26:50;;;;;;;;;;;;;;;6.38;100.00;95739.47;10571496;27;1602;-73
2023/11/07 21:31:52;;;;;;;;;;;;;;;6.32;100.00;95745.00;10570006;27;1907;-72
2023/11/07 21:36:55;;;;;;;;;;;;;;;6.32;100.00;95756.50;10576555;27;1534;-72
2023/11/07 21:41:57;;;;;;;;;;;;;;;6.37;100.00;95751.22;10573964;27;1460;-73
2023/11/07 21:47:00;;;;;;;;;;;;;;;6.45;100.00;95761.47;10555051;27;5073;-73
2023/11/07 21:52:03;;;;;;;;;;;;;;;6.40;100.00;95769.41;10574858;28;1913;-72
2023/11/07 21:57:06;;;;;;;;;;;;;;;6.42;100.00;95774.50;10575370;27;2529;-73
2023/11/07 22:02:08;;;;;;;;;;;;;;;6.35;100.00;95776.53;10564841;27;2631;-73
2023/11/07 22:07:12;;;;;;;;;;;;;;;6.35;100.00;95758.66;10566799;27;2591;-73
2023/11/07 22:12:14;;;;;;;;;;;;;;;6.42;100.00;95772.63;10562155;27;2534;-72
2023/11/07 22:17:17;;;;;;;;;;;;;;;6.57;100.00;95763.22;10571839;27;2575;-74
2023/11/07 22:22:19;;;;;;;;;;;;;;;6.59;100.00;95771.78;10569229;27;2574;-75
2023/11/07 22:27:22;;;;;;;;;;;;;;;6.57;100.00;95766.69;10562372;27;2608;-72
2023/11/07 22:32:24;;;;;;;;;;;;;;;6.60;100.00;95768.84;10566452;27;2742;-72
2023/11/07 22:37:27;;;;;;;;;;;;;;;6.67;100.00;95774.00;10563955;27;2603;-72
2023/11/07 22:42:30;;;;;;;;;;;;;;;6.57;100.00;95784.59;10562051;27;4763;-74
2023/11/07 22:47:32;;;;;;;;;;;;;;;6.63;100.00;95783.59;10557975;27;2643;-72
2023/11/07 22:52:35;;;;;;;;;;;;;;;6.62;100.00;95792.66;10559449;27;2655;-73
2023/11/07 22:57:37;;;;;;;;;;;;;;;6.60;100.00;95798.22;10562603;27;2636;-73
2023/11/07 23:02:40;;;;;;;;;;;;;;;6.62;100.00;95803.34;10551410;27;3062;-73
2023/11/07 23:07:42;;;;;;;;;;;;;;;6.62;100.00;95798.81;10570914;27;2677;-73
2023/11/07 23:12:45;;;;;;;;;;;;;;;6.66;100.00;95812.47;10566271;27;2727;-74
2023/11/07 23:17:47;;;;;;;;;;;;;;;6.63;100.00;95804.97;10570840;27;2608;-73
2023/11/07 23:22:50;;;;;;;;;;;;;;;6.57;100.00;95796.06;10567180;27;2557;-72
2023/11/07 23:27:52;;;;;;;;;;;;;;;6.52;100.00;95804.00;10566915;27;2591;-73
2023/11/07 23:32:54;;;;;;;;;;;;;;;6.31;100.00;95797.59;10568494;27;2612;-73
2023/11/07 23:37:59;;;;;;;;;;;;;;;6.12;100.00;95804.25;10565562;27;2624;-73
2023/11/07 23:43:02;;;;;;;;;;;;;;;6.16;100.00;95810.69;10563651;27;4790;-73
2023/11/07 23:48:04;;;;;;;;;;;;;;;6.24;100.00;95807.63;10567003;27;2561;-73
2023/11/07 23:53:09;;;;;;;;;;;;;;;6.05;100.00;95803.63;10564254;27;2605;-73
2023/11/07 23:58:15;;;;;;;;;;;;;;;5.86;100.00;95813.69;10562845;27;2565;-72
